createdAt,value
2019-05-10T00:01:21.991Z,11.10
2019-05-10T00:04:08.735Z,11.00
2019-05-10T00:06:55.240Z,11.10
2019-05-10T00:09:23.259Z,11.00
2019-05-10T00:11:54.081Z,11.00
2019-05-10T00:14:30.157Z,11.00
2019-05-10T00:17:00.429Z,11.00
2019-05-10T00:19:29.093Z,10.90
2019-05-10T00:22:17.245Z,10.80
2019-05-10T00:25:02.345Z,10.80
2019-05-10T00:27:17.661Z,10.70
2019-05-10T00:30:06.861Z,10.80
2019-05-10T00:32:35.421Z,10.80
2019-05-10T00:35:23.416Z,10.80
2019-05-10T00:37:51.986Z,10.80
2019-05-10T00:40:20.640Z,10.70
2019-05-10T00:42:49.282Z,10.70
2019-05-10T00:45:18.007Z,10.60
2019-05-10T00:47:46.645Z,10.50
2019-05-10T00:50:15.472Z,10.50
2019-05-10T00:52:44.035Z,10.50
2019-05-10T00:55:18.911Z,10.40
2019-05-10T00:57:42.969Z,10.40
2019-05-10T01:00:11.799Z,10.40
2019-05-10T01:02:40.433Z,10.30
2019-05-10T01:05:09.440Z,10.30
2019-05-10T01:07:37.989Z,10.40
2019-05-10T01:10:08.225Z,10.40
2019-05-10T01:12:36.841Z,10.40
2019-05-10T01:15:09.279Z,10.40
2019-05-10T01:17:37.840Z,10.30
2019-05-10T01:20:08.346Z,10.30
2019-05-10T01:22:37.037Z,10.20
2019-05-10T01:25:07.369Z,10.20
2019-05-10T01:27:36.077Z,10.10
2019-05-10T01:30:07.173Z,10.00
2019-05-10T01:32:36.073Z,10.00
2019-05-10T01:35:25.526Z,10.00
2019-05-10T01:37:54.097Z,10.00
2019-05-10T01:40:22.746Z,9.90
2019-05-10T01:42:57.430Z,10.00
2019-05-10T01:45:26.156Z,9.90
2019-05-10T01:47:54.877Z,9.90
2019-05-10T01:50:25.069Z,9.90
2019-05-10T01:53:13.029Z,9.90
2019-05-10T01:55:51.379Z,10.10
2019-05-10T01:58:11.833Z,10.10
2019-05-10T02:00:40.589Z,10.20
2019-05-10T02:03:28.574Z,10.30
2019-05-10T02:05:57.168Z,10.20
2019-05-10T02:08:45.134Z,10.20
2019-05-10T02:11:33.133Z,10.20
2019-05-10T02:14:03.338Z,10.20
2019-05-10T02:16:32.037Z,10.20
2019-05-10T02:19:20.042Z,10.10
2019-05-10T02:21:48.699Z,10.00
2019-05-10T02:24:17.515Z,9.90
2019-05-10T02:26:46.142Z,9.80
2019-05-10T02:29:14.799Z,9.70
2019-05-10T02:31:43.504Z,9.70
2019-05-10T02:34:12.169Z,9.60
2019-05-10T02:36:40.709Z,9.60
2019-05-10T02:39:09.565Z,9.50
2019-05-10T02:41:38.264Z,9.40
2019-05-10T02:44:06.968Z,9.30
2019-05-10T02:46:35.710Z,9.40
2019-05-10T02:49:04.443Z,9.30
2019-05-10T02:51:33.167Z,9.30
2019-05-10T02:54:02.163Z,9.30
2019-05-10T02:56:32.193Z,9.20
2019-05-10T02:59:01.480Z,9.10
2019-05-10T03:01:50.949Z,9.10
2019-05-10T03:04:39.011Z,9.00
2019-05-10T03:07:26.926Z,9.00
2019-05-10T03:09:55.513Z,9.00
2019-05-10T03:12:26.402Z,8.80
2019-05-10T03:14:57.885Z,8.80
2019-05-10T03:17:46.753Z,8.80
2019-05-10T03:20:36.216Z,8.80
2019-05-10T03:23:25.689Z,8.70
2019-05-10T03:25:54.292Z,8.70
2019-05-10T03:28:23.079Z,8.60
2019-05-10T03:30:51.930Z,8.70
2019-05-10T03:33:39.876Z,8.80
2019-05-10T03:36:08.911Z,8.80
2019-05-10T03:38:38.101Z,8.90
2019-05-10T03:41:06.829Z,8.90
2019-05-10T03:43:35.492Z,8.80
2019-05-10T03:46:04.197Z,8.70
2019-05-10T03:48:52.189Z,8.70
2019-05-10T03:51:20.883Z,8.70
2019-05-10T03:53:49.643Z,8.70
2019-05-10T03:56:18.269Z,8.80
2019-05-10T03:58:46.929Z,8.80
2019-05-10T04:01:15.630Z,8.80
2019-05-10T04:03:44.185Z,8.90
2019-05-10T04:06:12.913Z,8.90
2019-05-10T04:09:01.010Z,8.90
2019-05-10T04:11:29.564Z,8.90
2019-05-10T04:13:58.222Z,9.00
2019-05-10T04:16:28.307Z,9.00
2019-05-10T04:18:56.857Z,9.10
2019-05-10T04:21:25.505Z,9.10
2019-05-10T04:24:13.440Z,9.10
2019-05-10T04:26:42.015Z,9.10
2019-05-10T04:29:10.660Z,9.00
2019-05-10T04:31:39.282Z,9.10
2019-05-10T04:34:07.972Z,9.10
2019-05-10T04:36:36.585Z,9.10
2019-05-10T04:39:06.567Z,9.20
2019-05-10T04:41:35.219Z,9.30
2019-05-10T04:44:04.116Z,9.30
2019-05-10T04:46:32.704Z,9.30
2019-05-10T04:49:01.252Z,9.30
2019-05-10T04:51:29.917Z,9.40
2019-05-10T04:53:58.483Z,9.40
2019-05-10T04:56:27.141Z,9.40
2019-05-10T04:58:55.704Z,9.50
2019-05-10T05:01:24.357Z,9.50
2019-05-10T05:03:54.452Z,9.50
2019-05-10T05:06:23.170Z,9.50
2019-05-10T05:08:51.788Z,9.40
2019-05-10T05:11:20.457Z,9.50
2019-05-10T05:13:49.094Z,9.60
2019-05-10T05:16:19.283Z,9.60
2019-05-10T05:18:47.930Z,9.60
2019-05-10T05:21:16.498Z,9.60
2019-05-10T05:23:45.054Z,9.80
2019-05-10T05:26:13.633Z,9.90
2019-05-10T05:28:42.200Z,10.10
2019-05-10T05:31:10.797Z,10.20
2019-05-10T05:33:39.360Z,10.30
2019-05-10T05:36:08.061Z,10.40
2019-05-10T05:38:40.317Z,10.60
2019-05-10T05:41:26.453Z,10.80
2019-05-10T05:43:55.017Z,10.80
2019-05-10T05:46:23.610Z,10.90
2019-05-10T05:48:52.244Z,11.10
2019-05-10T05:51:20.967Z,11.40
2019-05-10T05:53:49.626Z,11.50
2019-05-10T05:56:18.501Z,11.50
2019-05-10T05:58:47.259Z,11.80
2019-05-10T06:01:24.706Z,12.00
2019-05-10T06:03:46.399Z,12.00
2019-05-10T06:06:21.493Z,12.20
2019-05-10T06:08:45.271Z,12.30
2019-05-10T06:11:14.045Z,12.60
2019-05-10T06:13:42.629Z,12.60
2019-05-10T06:16:12.785Z,12.70
2019-05-10T06:18:46.915Z,13.00
2019-05-10T06:21:11.942Z,13.00
2019-05-10T06:23:40.580Z,13.00
2019-05-10T06:26:21.398Z,12.90
2019-05-10T06:31:09.833Z,13.30
2019-05-10T06:33:39.744Z,13.40
2019-05-10T06:36:08.744Z,13.60
2019-05-10T06:38:37.532Z,13.70
2019-05-10T06:41:09.984Z,13.70
2019-05-10T06:43:36.627Z,13.70
2019-05-10T06:46:05.181Z,13.80
2019-05-10T06:48:34.035Z,13.60
2019-05-10T06:51:09.346Z,13.50
2019-05-10T06:53:36.587Z,13.40
2019-05-10T06:56:41.707Z,13.20
2019-05-10T07:01:56.525Z,13.30
2019-05-10T07:04:35.099Z,13.30
2019-05-10T07:07:00.717Z,13.20
2019-05-10T07:10:00.615Z,13.30
2019-05-10T07:12:03.546Z,13.50
2019-05-10T07:14:32.495Z,13.50
2019-05-10T07:17:04.416Z,13.60
2019-05-10T07:19:35.059Z,13.70
2019-05-10T07:22:03.489Z,13.90
2019-05-10T07:24:32.121Z,14.30
2019-05-10T07:27:05.719Z,14.60
2019-05-10T07:29:42.705Z,14.30
2019-05-10T07:32:08.722Z,14.30
2019-05-10T07:35:00.773Z,14.40
2019-05-10T07:37:27.354Z,14.70
2019-05-10T07:40:15.827Z,14.90
2019-05-10T07:42:45.495Z,14.90
2019-05-10T07:45:18.833Z,15.00
2019-05-10T07:47:45.099Z,15.00
2019-05-10T07:50:14.332Z,15.10
2019-05-10T07:52:45.445Z,15.10
2019-05-10T07:55:18.619Z,15.10
2019-05-10T07:58:05.029Z,15.30
2019-05-10T08:00:38.019Z,15.60
2019-05-10T08:03:13.155Z,15.40
2019-05-10T08:05:35.245Z,15.60
2019-05-10T08:08:23.178Z,15.40
2019-05-10T08:10:51.808Z,15.50
2019-05-10T08:13:39.753Z,15.50
2019-05-10T08:16:29.009Z,15.80
2019-05-10T08:19:01.043Z,15.80
2019-05-10T08:21:28.033Z,15.80
2019-05-10T08:23:59.032Z,15.40
2019-05-10T08:26:26.981Z,15.00
2019-05-10T08:28:55.645Z,14.90
2019-05-10T08:31:26.437Z,14.80
2019-05-10T08:33:58.722Z,15.00
2019-05-10T08:36:24.946Z,14.90
2019-05-10T08:39:03.846Z,14.80
2019-05-10T08:41:45.835Z,14.80
2019-05-10T08:44:19.236Z,14.80
2019-05-10T08:46:45.272Z,14.70
2019-05-10T08:49:13.938Z,14.90
2019-05-10T08:51:47.787Z,15.10
2019-05-10T08:54:32.821Z,15.20
2019-05-10T08:57:05.380Z,15.20
2019-05-10T08:59:33.981Z,15.30
2019-05-10T09:02:05.691Z,15.40
2019-05-10T09:04:48.787Z,15.60
2019-05-10T09:07:12.273Z,15.30
2019-05-10T09:09:49.472Z,15.20
2019-05-10T09:12:12.305Z,15.40
2019-05-10T09:14:42.614Z,15.50
2019-05-10T09:17:14.730Z,15.60
2019-05-10T09:19:44.240Z,15.70
2019-05-10T09:22:33.859Z,15.60
2019-05-10T09:25:29.158Z,15.70
2019-05-10T09:27:53.152Z,15.60
2019-05-10T09:30:35.604Z,15.80
2019-05-10T09:33:08.496Z,15.60
2019-05-10T09:35:33.722Z,15.50
2019-05-10T09:38:02.364Z,15.30
2019-05-10T09:40:32.710Z,15.20
2019-05-10T09:43:05.261Z,15.10
2019-05-10T09:45:32.406Z,15.00
2019-05-10T09:48:02.548Z,15.10
2019-05-10T09:50:41.374Z,15.30
2019-05-10T09:53:01.717Z,15.40
2019-05-10T09:55:31.785Z,15.70
2019-05-10T09:58:00.432Z,16.20
2019-05-10T10:00:33.739Z,16.20
2019-05-10T10:03:03.565Z,16.10
2019-05-10T10:05:32.291Z,16.00
2019-05-10T10:08:03.818Z,16.10
2019-05-10T10:10:50.539Z,16.30
2019-05-10T10:13:35.878Z,16.40
2019-05-10T10:15:52.025Z,16.60
2019-05-10T10:18:25.036Z,16.30
2019-05-10T10:20:49.935Z,16.10
2019-05-10T10:23:18.502Z,15.90
2019-05-10T10:25:48.364Z,15.80
2019-05-10T10:28:19.082Z,15.80
2019-05-10T10:30:50.492Z,15.80
2019-05-10T10:33:25.201Z,15.90
2019-05-10T10:35:49.210Z,16.00
2019-05-10T10:38:18.020Z,16.10
2019-05-10T10:40:46.716Z,16.10
2019-05-10T10:43:17.821Z,16.20
2019-05-10T10:45:45.759Z,16.30
2019-05-10T10:48:14.297Z,16.30
2019-05-10T10:50:44.229Z,16.40
2019-05-10T10:53:13.349Z,16.50
2019-05-10T10:55:48.519Z,16.40
2019-05-10T10:58:12.366Z,16.40
2019-05-10T11:00:41.033Z,16.60
2019-05-10T11:03:09.669Z,16.70
2019-05-10T11:05:38.329Z,16.60
2019-05-10T11:08:06.957Z,16.50
2019-05-10T11:10:35.717Z,16.50
2019-05-10T11:13:11.986Z,16.30
2019-05-10T11:15:36.251Z,16.30
2019-05-10T11:18:05.080Z,16.50
2019-05-10T11:20:33.805Z,16.40
2019-05-10T11:23:02.368Z,16.00
2019-05-10T11:25:31.299Z,16.10
2019-05-10T11:28:01.780Z,16.20
2019-05-10T11:30:32.262Z,16.40
2019-05-10T11:33:00.554Z,16.40
2019-05-10T11:35:32.025Z,16.60
2019-05-10T11:38:01.162Z,16.80
2019-05-10T11:40:34.866Z,17.00
2019-05-10T11:43:01.731Z,17.20
2019-05-10T11:45:34.262Z,17.40
2019-05-10T11:48:02.215Z,17.50
2019-05-10T11:50:35.107Z,17.60
2019-05-10T11:53:06.942Z,17.50
2019-05-10T11:55:35.714Z,17.30
2019-05-10T11:58:08.723Z,17.30
2019-05-10T12:00:34.868Z,17.50
2019-05-10T12:03:11.471Z,17.50
2019-05-10T12:05:33.773Z,17.60
2019-05-10T12:08:02.415Z,17.60
2019-05-10T12:10:32.024Z,17.40
2019-05-10T12:15:31.986Z,17.30
2019-05-10T12:18:04.560Z,17.40
2019-05-10T12:23:03.208Z,17.40
2019-05-10T12:25:46.313Z,17.10
2019-05-10T12:26:31.162Z,17.40
2019-05-10T12:26:47.875Z,17.50
2019-05-10T12:28:01.917Z,16.90
2019-05-10T12:30:34.865Z,16.90
2019-05-10T12:33:25.046Z,16.90
2019-05-10T12:35:51.074Z,16.90
2019-05-10T12:38:23.520Z,16.90
2019-05-10T12:41:09.393Z,17.00
2019-05-10T12:43:38.023Z,17.00
2019-05-10T12:46:06.761Z,17.10
2019-05-10T12:48:35.844Z,17.00
2019-05-10T12:51:11.326Z,17.10
2019-05-10T12:53:36.791Z,17.00
2019-05-10T12:56:24.887Z,16.90
2019-05-10T12:58:57.552Z,16.90
2019-05-10T13:01:25.764Z,16.80
2019-05-10T13:03:54.173Z,16.70
2019-05-10T13:06:22.902Z,16.90
2019-05-10T13:08:51.538Z,17.00
2019-05-10T13:11:25.410Z,17.30
2019-05-10T13:13:51.941Z,17.60
2019-05-10T13:16:41.401Z,17.70
2019-05-10T13:19:14.133Z,18.00
2019-05-10T13:21:40.350Z,18.20
2019-05-10T13:24:09.078Z,18.20
2019-05-10T13:26:37.673Z,18.40
2019-05-10T13:29:07.915Z,18.50
2019-05-10T13:31:41.717Z,18.20
2019-05-10T13:34:06.990Z,18.00
2019-05-10T13:36:37.281Z,18.20
2019-05-10T13:39:06.778Z,18.30
2019-05-10T13:41:35.539Z,18.50
2019-05-10T13:44:06.231Z,18.60
2019-05-10T13:46:35.286Z,18.70
2019-05-10T13:49:03.938Z,18.60
2019-05-10T13:51:33.309Z,18.60
2019-05-10T13:54:04.821Z,18.60
2019-05-10T13:56:32.250Z,18.60
2019-05-10T13:59:13.679Z,18.60
2019-05-10T14:01:31.050Z,18.70
2019-05-10T14:04:01.074Z,18.70
2019-05-10T14:06:29.926Z,18.70
2019-05-10T14:08:58.585Z,18.90
2019-05-10T14:11:27.144Z,18.70
2019-05-10T14:13:55.728Z,18.60
2019-05-10T14:16:24.293Z,18.40
2019-05-10T14:18:55.177Z,18.00
2019-05-10T14:21:23.707Z,18.00
2019-05-10T14:23:52.301Z,17.80
2019-05-10T14:26:20.933Z,17.90
2019-05-10T14:28:53.173Z,17.90
2019-05-10T14:31:19.813Z,17.90
2019-05-10T14:34:15.864Z,18.00
2019-05-10T14:36:40.845Z,18.30
2019-05-10T14:39:08.702Z,18.40
2019-05-10T14:41:39.834Z,18.50
2019-05-10T14:44:07.574Z,18.50
2019-05-10T14:46:36.132Z,18.50
2019-05-10T14:49:09.792Z,18.40
2019-05-10T14:51:44.323Z,18.40
2019-05-10T14:54:08.748Z,18.40
2019-05-10T14:56:35.693Z,18.10
2019-05-10T14:59:04.426Z,18.00
2019-05-10T15:01:36.878Z,18.00
2019-05-10T15:04:03.377Z,18.10
2019-05-10T15:06:36.817Z,18.10
2019-05-10T15:09:02.178Z,18.20
2019-05-10T15:11:31.748Z,18.40
2019-05-10T15:14:01.068Z,18.50
2019-05-10T15:16:30.820Z,18.50
2019-05-10T15:18:59.702Z,18.60
2019-05-10T15:21:28.330Z,18.60
2019-05-10T15:24:00.837Z,18.50
2019-05-10T15:26:27.332Z,18.30
2019-05-10T15:28:55.933Z,18.00
2019-05-10T15:31:29.398Z,17.90
2019-05-10T15:33:54.807Z,17.80
2019-05-10T15:36:23.646Z,17.90
2019-05-10T15:38:53.677Z,17.90
2019-05-10T15:41:23.697Z,18.00
2019-05-10T15:43:53.533Z,18.20
2019-05-10T15:46:23.465Z,18.30
2019-05-10T15:48:53.295Z,18.20
2019-05-10T15:51:41.264Z,18.30
2019-05-10T15:54:09.865Z,18.10
2019-05-10T15:56:41.508Z,18.00
2019-05-10T15:59:12.731Z,17.90
2019-05-10T16:01:38.864Z,17.70
2019-05-10T16:04:07.608Z,17.50
2019-05-10T16:06:37.613Z,17.50
2019-05-10T16:09:16.955Z,17.50
2019-05-10T16:12:02.379Z,17.60
2019-05-10T16:14:27.718Z,17.60
2019-05-10T16:16:57.893Z,17.70
2019-05-10T16:19:26.480Z,17.60
2019-05-10T16:21:58.032Z,17.60
2019-05-10T16:24:27.675Z,17.50
2019-05-10T16:27:14.910Z,17.50
2019-05-10T16:29:43.508Z,17.60
2019-05-10T16:32:12.201Z,17.50
2019-05-10T16:34:40.799Z,17.40
2019-05-10T16:37:09.496Z,17.20
2019-05-10T16:39:38.168Z,17.30
2019-05-10T16:42:06.820Z,17.30
2019-05-10T16:44:35.785Z,17.20
2019-05-10T16:47:04.489Z,17.20
2019-05-10T16:49:33.153Z,17.10
2019-05-10T16:52:01.723Z,17.00
2019-05-10T16:54:30.645Z,17.10
2019-05-10T16:57:01.100Z,17.10
2019-05-10T16:59:31.232Z,17.20
2019-05-10T17:02:04.447Z,17.10
2019-05-10T17:04:32.179Z,17.30
2019-05-10T17:07:00.244Z,17.20
2019-05-10T17:09:28.828Z,17.10
2019-05-10T17:11:59.169Z,17.00
2019-05-10T17:14:28.038Z,17.00
2019-05-10T17:16:58.830Z,16.90
2019-05-10T17:19:27.798Z,16.80
2019-05-10T17:21:57.297Z,16.80
2019-05-10T17:24:25.861Z,16.70
2019-05-10T17:26:54.523Z,16.80
2019-05-10T17:29:23.228Z,16.70
2019-05-10T17:31:51.817Z,16.70
2019-05-10T17:34:29.145Z,16.70
2019-05-10T17:37:10.022Z,16.70
2019-05-10T17:39:38.581Z,16.70
2019-05-10T17:42:07.183Z,16.50
2019-05-10T17:44:35.740Z,16.40
2019-05-10T17:47:04.461Z,16.40
2019-05-10T17:49:33.090Z,16.40
2019-05-10T17:52:01.712Z,16.30
2019-05-10T17:54:33.706Z,16.30
2019-05-10T17:57:00.581Z,16.30
2019-05-10T17:59:29.141Z,16.10
2019-05-10T18:01:57.803Z,16.00
2019-05-10T18:04:26.424Z,16.00
2019-05-10T18:06:55.017Z,15.90
2019-05-10T18:09:23.577Z,15.80
2019-05-10T18:11:52.255Z,15.70
2019-05-10T18:14:20.817Z,15.80
2019-05-10T18:17:08.865Z,15.80
2019-05-10T18:19:37.388Z,15.90
2019-05-10T18:22:06.602Z,15.70
2019-05-10T18:24:37.273Z,15.60
2019-05-10T18:27:05.561Z,15.40
2019-05-10T18:29:34.268Z,15.20
2019-05-10T18:32:02.858Z,15.20
2019-05-10T18:34:33.236Z,15.20
2019-05-10T18:37:01.778Z,15.20
2019-05-10T18:39:30.414Z,15.00
2019-05-10T18:41:59.004Z,15.00
2019-05-10T18:44:27.560Z,14.90
2019-05-10T18:46:56.161Z,14.80
2019-05-10T18:49:44.138Z,14.70
2019-05-10T18:52:12.797Z,14.60
2019-05-10T18:54:41.446Z,14.40
2019-05-10T18:57:12.223Z,14.20
2019-05-10T18:59:45.378Z,14.30
2019-05-10T19:02:11.730Z,14.30
2019-05-10T19:04:45.815Z,14.20
2019-05-10T19:07:11.286Z,14.20
2019-05-10T19:09:39.832Z,14.00
2019-05-10T19:12:17.568Z,14.00
2019-05-10T19:14:38.924Z,13.90
2019-05-10T19:17:09.333Z,13.90
2019-05-10T19:19:41.984Z,13.90
2019-05-10T19:22:09.270Z,13.90
2019-05-10T19:24:38.684Z,13.80
2019-05-10T19:27:09.189Z,13.90
2019-05-10T19:29:38.866Z,13.90
2019-05-10T19:32:11.603Z,13.70
2019-05-10T19:34:37.995Z,13.80
2019-05-10T19:37:06.548Z,13.70
2019-05-10T19:39:35.216Z,13.70
2019-05-10T19:42:06.154Z,13.70
2019-05-10T19:44:34.612Z,13.70
2019-05-10T19:47:23.887Z,13.60
2019-05-10T19:49:53.571Z,13.70
2019-05-10T19:52:26.127Z,13.60
2019-05-10T19:54:52.698Z,13.60
2019-05-10T19:57:21.329Z,13.50
2019-05-10T19:59:50.312Z,13.50
2019-05-10T20:02:18.944Z,13.40
2019-05-10T20:04:47.599Z,13.40
2019-05-10T20:07:45.465Z,13.30
2019-05-10T20:10:07.810Z,13.20
2019-05-10T20:12:36.883Z,13.20
2019-05-10T20:15:07.422Z,13.20
2019-05-10T20:17:36.045Z,13.20
2019-05-10T20:20:06.913Z,13.10
2019-05-10T20:22:36.363Z,13.10
2019-05-10T20:25:06.565Z,13.10
2019-05-10T20:27:54.537Z,13.10
2019-05-10T20:30:23.294Z,13.00
2019-05-10T20:32:51.948Z,13.00
2019-05-10T20:35:20.581Z,13.00
2019-05-10T20:38:01.218Z,13.00
2019-05-10T20:40:19.448Z,12.90
2019-05-10T20:42:48.009Z,12.80
2019-05-10T20:45:16.735Z,12.70
2019-05-10T20:47:45.433Z,12.70
2019-05-10T20:50:14.370Z,12.70
2019-05-10T20:53:02.340Z,12.70
2019-05-10T20:55:30.933Z,12.70
2019-05-10T20:58:18.902Z,12.70
2019-05-10T21:00:47.602Z,12.70
2019-05-10T21:03:16.143Z,12.80
2019-05-10T21:05:44.733Z,12.70
2019-05-10T21:08:17.070Z,12.70
2019-05-10T21:10:43.546Z,12.70
2019-05-10T21:13:12.109Z,12.70
2019-05-10T21:15:40.769Z,12.80
2019-05-10T21:18:09.398Z,12.60
2019-05-10T21:20:38.071Z,12.60
2019-05-10T21:23:06.613Z,12.50
2019-05-10T21:25:35.443Z,12.50
2019-05-10T21:28:04.141Z,12.40
2019-05-10T21:30:32.735Z,12.50
2019-05-10T21:33:01.362Z,12.40
2019-05-10T21:35:30.078Z,12.40
2019-05-10T21:37:58.649Z,12.40
2019-05-10T21:40:27.244Z,12.50
2019-05-10T21:42:55.878Z,12.50
2019-05-10T21:45:43.878Z,12.40
2019-05-10T21:48:12.505Z,12.30
2019-05-10T21:50:41.105Z,12.30
2019-05-10T21:53:09.724Z,12.30
2019-05-10T21:55:38.453Z,12.30
2019-05-10T21:58:07.013Z,12.30
2019-05-10T22:00:37.250Z,12.10
2019-05-10T22:03:25.208Z,12.20
2019-05-10T22:05:53.871Z,12.20
2019-05-10T22:08:22.572Z,12.10
2019-05-10T22:10:51.161Z,12.10
2019-05-10T22:13:39.132Z,12.10
2019-05-10T22:16:07.865Z,12.10
2019-05-10T22:18:38.196Z,12.10
2019-05-10T22:21:06.793Z,12.10
2019-05-10T22:23:35.353Z,12.10
2019-05-10T22:26:04.122Z,12.20
2019-05-10T22:28:52.082Z,12.20
2019-05-10T22:31:20.741Z,12.20
2019-05-10T22:33:49.434Z,12.20
2019-05-10T22:36:18.101Z,12.10
2019-05-10T22:38:46.794Z,12.00
2019-05-10T22:41:15.956Z,12.10
2019-05-10T22:44:04.017Z,12.00
2019-05-10T22:46:52.021Z,12.10
2019-05-10T22:49:40.009Z,12.10
2019-05-10T22:52:08.643Z,12.00
2019-05-10T22:54:38.769Z,12.10
2019-05-10T22:57:26.737Z,12.10
2019-05-10T22:59:55.398Z,12.10
2019-05-10T23:02:24.101Z,12.10
2019-05-10T23:04:52.834Z,12.00
2019-05-10T23:07:40.837Z,12.00
2019-05-10T23:10:28.760Z,11.90
2019-05-10T23:13:16.868Z,12.00
2019-05-10T23:15:45.562Z,11.90
2019-05-10T23:18:14.191Z,11.90
2019-05-10T23:20:42.789Z,11.90
2019-05-10T23:23:11.435Z,11.90
2019-05-10T23:25:40.265Z,11.90
2019-05-10T23:28:08.831Z,11.90
2019-05-10T23:30:56.828Z,12.00
2019-05-10T23:33:25.390Z,11.90
2019-05-10T23:35:55.529Z,11.90
2019-05-10T23:38:24.156Z,11.80
2019-05-10T23:41:12.081Z,11.60
2019-05-10T23:43:40.714Z,11.40
2019-05-10T23:46:09.305Z,11.40
2019-05-10T23:48:37.933Z,11.50
2019-05-10T23:51:06.592Z,11.40
2019-05-10T23:53:54.558Z,11.50
2019-05-10T23:56:23.221Z,11.60
2019-05-10T23:58:51.783Z,11.60
